sensor_id;sensor_type;location;lat;lon;timestamp;pressure;altitude;pressure_sealevel;temperature;humidity
34506;BME280;20748;42.632;23.198;2023-12-28T00:01:54;93024.06;;;0.84;93.38
34506;BME280;20748;42.632;23.198;2023-12-28T00:04:28;93025.63;;;0.85;93.19
34506;BME280;20748;42.632;23.198;2023-12-28T00:07:03;93027.81;;;0.88;93.53
34506;BME280;20748;42.632;23.198;2023-12-28T00:09:39;93032.94;;;0.88;93.64
34506;BME280;20748;42.632;23.198;2023-12-28T00:12:13;93035.88;;;0.91;93.26
34506;BME280;20748;42.632;23.198;2023-12-28T00:14:47;93038.28;;;0.86;94.33
34506;BME280;20748;42.632;23.198;2023-12-28T00:17:23;93036.91;;;0.84;94.45
34506;BME280;20748;42.632;23.198;2023-12-28T00:19:59;93035.56;;;0.81;94.77
34506;BME280;20748;42.632;23.198;2023-12-28T00:22:35;93031.72;;;0.90;94.59
34506;BME280;20748;42.632;23.198;2023-12-28T00:25:09;93032.72;;;0.89;94.00
34506;BME280;20748;42.632;23.198;2023-12-28T00:27:43;93034.50;;;0.89;93.93
34506;BME280;20748;42.632;23.198;2023-12-28T00:33:09;93028.38;;;0.90;93.51
34506;BME280;20748;42.632;23.198;2023-12-28T00:35:42;93032.09;;;0.94;93.30
34506;BME280;20748;42.632;23.198;2023-12-28T00:38:17;93029.94;;;0.91;93.15
34506;BME280;20748;42.632;23.198;2023-12-28T00:40:51;93028.91;;;0.73;93.90
34506;BME280;20748;42.632;23.198;2023-12-28T00:43:26;93035.34;;;0.83;93.44
34506;BME280;20748;42.632;23.198;2023-12-28T00:46:07;93030.69;;;0.73;92.78
34506;BME280;20748;42.632;23.198;2023-12-28T00:48:41;93040.81;;;0.68;93.09
34506;BME280;20748;42.632;23.198;2023-12-28T00:51:15;93039.47;;;0.65;93.52
34506;BME280;20748;42.632;23.198;2023-12-28T00:53:51;93043.75;;;0.71;94.04
34506;BME280;20748;42.632;23.198;2023-12-28T00:56:24;93049.44;;;0.73;93.77
34506;BME280;20748;42.632;23.198;2023-12-28T00:59:01;93056.75;;;0.76;94.00
34506;BME280;20748;42.632;23.198;2023-12-28T01:01:38;93049.69;;;0.72;93.97
34506;BME280;20748;42.632;23.198;2023-12-28T01:04:11;93055.88;;;0.64;94.19
34506;BME280;20748;42.632;23.198;2023-12-28T01:06:48;93055.22;;;0.69;94.03
34506;BME280;20748;42.632;23.198;2023-12-28T01:09:23;93053.72;;;0.61;94.03
34506;BME280;20748;42.632;23.198;2023-12-28T01:11:57;93057.47;;;0.58;94.21
34506;BME280;20748;42.632;23.198;2023-12-28T01:14:33;93052.41;;;0.51;95.31
34506;BME280;20748;42.632;23.198;2023-12-28T01:17:07;93056.28;;;0.61;94.35
34506;BME280;20748;42.632;23.198;2023-12-28T01:19:41;93052.09;;;0.66;94.69
34506;BME280;20748;42.632;23.198;2023-12-28T01:22:21;93052.09;;;0.66;94.66
34506;BME280;20748;42.632;23.198;2023-12-28T01:24:58;93051.47;;;0.71;94.43
34506;BME280;20748;42.632;23.198;2023-12-28T01:27:31;93048.31;;;0.69;94.81
34506;BME280;20748;42.632;23.198;2023-12-28T01:30:08;93052.03;;;0.73;94.59
34506;BME280;20748;42.632;23.198;2023-12-28T01:32:42;93054.59;;;0.73;94.15
34506;BME280;20748;42.632;23.198;2023-12-28T01:35:19;93048.59;;;0.79;93.18
34506;BME280;20748;42.632;23.198;2023-12-28T01:37:52;93045.31;;;0.72;93.68
34506;BME280;20748;42.632;23.198;2023-12-28T01:40:27;93051.56;;;0.83;92.11
34506;BME280;20748;42.632;23.198;2023-12-28T01:43:01;93044.75;;;0.70;92.96
34506;BME280;20748;42.632;23.198;2023-12-28T01:45:35;93048.69;;;0.73;92.76
34506;BME280;20748;42.632;23.198;2023-12-28T01:48:09;93057.22;;;0.66;93.48
34506;BME280;20748;42.632;23.198;2023-12-28T01:50:47;93058.69;;;0.56;94.52
34506;BME280;20748;42.632;23.198;2023-12-28T01:53:24;93057.94;;;0.48;94.60
34506;BME280;20748;42.632;23.198;2023-12-28T01:56:01;93057.03;;;0.43;95.98
34506;BME280;20748;42.632;23.198;2023-12-28T01:58:38;93058.38;;;0.45;96.29
34506;BME280;20748;42.632;23.198;2023-12-28T02:01:13;93050.25;;;0.48;94.94
34506;BME280;20748;42.632;23.198;2023-12-28T02:03:49;93043.59;;;0.40;95.68
34506;BME280;20748;42.632;23.198;2023-12-28T02:06:23;93054.03;;;0.46;95.10
34506;BME280;20748;42.632;23.198;2023-12-28T02:08:57;93054.19;;;0.51;95.28
34506;BME280;20748;42.632;23.198;2023-12-28T02:11:38;93052.81;;;0.48;96.08
34506;BME280;20748;42.632;23.198;2023-12-28T02:14:11;93044.53;;;0.46;96.13
34506;BME280;20748;42.632;23.198;2023-12-28T02:16:49;93048.03;;;0.52;96.10
34506;BME280;20748;42.632;23.198;2023-12-28T02:19:32;93037.72;;;0.59;95.26
34506;BME280;20748;42.632;23.198;2023-12-28T02:22:07;93042.38;;;0.69;93.76
34506;BME280;20748;42.632;23.198;2023-12-28T02:25:04;93040.38;;;0.71;92.77
34506;BME280;20748;42.632;23.198;2023-12-28T02:27:40;93032.38;;;0.60;94.03
34506;BME280;20748;42.632;23.198;2023-12-28T02:30:17;93032.44;;;0.53;94.10
34506;BME280;20748;42.632;23.198;2023-12-28T02:33:03;93021.38;;;0.53;94.31
34506;BME280;20748;42.632;23.198;2023-12-28T02:35:48;93020.41;;;0.54;94.88
34506;BME280;20748;42.632;23.198;2023-12-28T02:38:29;93024.16;;;0.51;95.57
34506;BME280;20748;42.632;23.198;2023-12-28T02:41:05;93027.88;;;0.56;94.53
34506;BME280;20748;42.632;23.198;2023-12-28T02:43:39;93025.41;;;0.42;95.00
34506;BME280;20748;42.632;23.198;2023-12-28T02:46:17;93026.22;;;0.43;94.54
34506;BME280;20748;42.632;23.198;2023-12-28T02:48:53;93025.84;;;0.39;95.10
34506;BME280;20748;42.632;23.198;2023-12-28T02:51:32;93032.78;;;0.32;95.55
34506;BME280;20748;42.632;23.198;2023-12-28T02:54:09;93027.66;;;0.32;94.85
34506;BME280;20748;42.632;23.198;2023-12-28T02:56:46;93021.91;;;0.36;95.24
34506;BME280;20748;42.632;23.198;2023-12-28T02:59:23;93020.31;;;0.35;94.81
34506;BME280;20748;42.632;23.198;2023-12-28T03:02:03;93022.94;;;0.29;95.53
34506;BME280;20748;42.632;23.198;2023-12-28T03:04:39;93015.66;;;0.25;95.72
34506;BME280;20748;42.632;23.198;2023-12-28T03:07:13;93013.16;;;0.19;96.48
34506;BME280;20748;42.632;23.198;2023-12-28T03:09:47;93008.38;;;0.22;96.05
34506;BME280;20748;42.632;23.198;2023-12-28T03:12:22;93004.84;;;0.17;97.01
34506;BME280;20748;42.632;23.198;2023-12-28T03:14:59;93004.09;;;0.16;97.15
34506;BME280;20748;42.632;23.198;2023-12-28T03:17:33;92996.59;;;0.15;97.49
34506;BME280;20748;42.632;23.198;2023-12-28T03:20:10;93000.16;;;0.13;97.66
34506;BME280;20748;42.632;23.198;2023-12-28T03:22:44;92996.22;;;0.11;98.37
34506;BME280;20748;42.632;23.198;2023-12-28T03:25:17;92996.63;;;0.08;97.94
34506;BME280;20748;42.632;23.198;2023-12-28T03:27:52;92991.28;;;0.09;98.52
34506;BME280;20748;42.632;23.198;2023-12-28T03:30:27;92987.53;;;0.12;98.30
34506;BME280;20748;42.632;23.198;2023-12-28T03:33:04;92992.13;;;0.03;98.70
34506;BME280;20748;42.632;23.198;2023-12-28T03:35:41;92997.81;;;0.05;99.56
34506;BME280;20748;42.632;23.198;2023-12-28T03:38:15;92995.03;;;0.13;100.00
34506;BME280;20748;42.632;23.198;2023-12-28T03:40:51;92989.75;;;0.02;100.00
34506;BME280;20748;42.632;23.198;2023-12-28T03:43:28;92994.22;;;0.13;100.00
34506;BME280;20748;42.632;23.198;2023-12-28T03:46:01;92997.53;;;0.20;100.00
34506;BME280;20748;42.632;23.198;2023-12-28T03:48:38;92995.28;;;0.31;100.00
34506;BME280;20748;42.632;23.198;2023-12-28T03:51:13;93003.50;;;0.39;100.00
34506;BME280;20748;42.632;23.198;2023-12-28T03:53:52;93002.31;;;0.42;100.00
34506;BME280;20748;42.632;23.198;2023-12-28T03:56:29;93005.97;;;0.53;100.00
34506;BME280;20748;42.632;23.198;2023-12-28T03:59:06;93015.78;;;0.63;100.00
34506;BME280;20748;42.632;23.198;2023-12-28T04:01:44;93007.06;;;0.64;100.00
34506;BME280;20748;42.632;23.198;2023-12-28T04:04:22;93007.91;;;0.58;100.00
34506;BME280;20748;42.632;23.198;2023-12-28T04:06:55;93008.75;;;0.51;99.41
34506;BME280;20748;42.632;23.198;2023-12-28T04:09:29;93014.47;;;0.53;97.92
34506;BME280;20748;42.632;23.198;2023-12-28T04:12:04;93004.53;;;0.57;97.25
34506;BME280;20748;42.632;23.198;2023-12-28T04:14:41;93009.47;;;0.59;97.83
34506;BME280;20748;42.632;23.198;2023-12-28T04:17:14;93012.03;;;0.59;97.81
34506;BME280;20748;42.632;23.198;2023-12-28T04:19:49;93006.91;;;0.59;97.99
34506;BME280;20748;42.632;23.198;2023-12-28T04:22:24;93006.28;;;0.63;98.35
34506;BME280;20748;42.632;23.198;2023-12-28T04:24:58;93012.78;;;0.66;97.96
34506;BME280;20748;42.632;23.198;2023-12-28T04:27:37;93013.56;;;0.66;97.46
34506;BME280;20748;42.632;23.198;2023-12-28T04:30:15;93017.69;;;0.68;97.22
34506;BME280;20748;42.632;23.198;2023-12-28T04:32:51;93007.84;;;0.64;96.68
34506;BME280;20748;42.632;23.198;2023-12-28T04:35:25;93025.25;;;0.62;96.63
34506;BME280;20748;42.632;23.198;2023-12-28T04:37:59;93023.13;;;0.59;97.24
34506;BME280;20748;42.632;23.198;2023-12-28T04:40:33;93024.44;;;0.62;96.98
34506;BME280;20748;42.632;23.198;2023-12-28T04:43:06;93012.63;;;0.61;96.91
34506;BME280;20748;42.632;23.198;2023-12-28T04:45:41;93018.59;;;0.55;97.63
34506;BME280;20748;42.632;23.198;2023-12-28T04:48:15;93013.28;;;0.49;97.70
34506;BME280;20748;42.632;23.198;2023-12-28T04:50:53;93009.59;;;0.45;97.67
34506;BME280;20748;42.632;23.198;2023-12-28T04:53:27;93009.53;;;0.52;97.10
34506;BME280;20748;42.632;23.198;2023-12-28T04:56:00;93014.94;;;0.44;97.36
34506;BME280;20748;42.632;23.198;2023-12-28T04:58:39;93017.31;;;0.45;97.28
34506;BME280;20748;42.632;23.198;2023-12-28T05:01:15;93010.03;;;0.35;98.26
34506;BME280;20748;42.632;23.198;2023-12-28T05:03:49;93010.69;;;0.31;98.98
34506;BME280;20748;42.632;23.198;2023-12-28T05:06:27;93004.34;;;0.33;98.63
34506;BME280;20748;42.632;23.198;2023-12-28T05:09:01;93011.47;;;0.31;99.27
34506;BME280;20748;42.632;23.198;2023-12-28T05:11:37;93004.78;;;0.30;98.50
34506;BME280;20748;42.632;23.198;2023-12-28T05:14:13;93013.50;;;0.22;99.45
34506;BME280;20748;42.632;23.198;2023-12-28T05:16:50;93015.81;;;0.31;99.22
34506;BME280;20748;42.632;23.198;2023-12-28T05:19:25;93008.38;;;0.22;99.41
34506;BME280;20748;42.632;23.198;2023-12-28T05:22:02;93014.50;;;0.21;99.42
34506;BME280;20748;42.632;23.198;2023-12-28T05:24:42;93017.69;;;0.17;100.00
34506;BME280;20748;42.632;23.198;2023-12-28T05:27:15;93010.16;;;0.22;99.56
34506;BME280;20748;42.632;23.198;2023-12-28T05:29:49;93009.38;;;0.21;99.89
34506;BME280;20748;42.632;23.198;2023-12-28T05:32:24;93012.34;;;0.18;100.00
34506;BME280;20748;42.632;23.198;2023-12-28T05:34:59;93012.91;;;0.20;100.00
34506;BME280;20748;42.632;23.198;2023-12-28T05:37:33;93012.16;;;0.20;100.00
34506;BME280;20748;42.632;23.198;2023-12-28T05:40:08;93017.31;;;0.13;100.00
34506;BME280;20748;42.632;23.198;2023-12-28T05:42:42;93024.81;;;0.15;100.00
34506;BME280;20748;42.632;23.198;2023-12-28T05:45:15;93029.31;;;0.19;100.00
34506;BME280;20748;42.632;23.198;2023-12-28T05:47:51;93024.56;;;0.23;100.00
34506;BME280;20748;42.632;23.198;2023-12-28T05:50:26;93026.19;;;0.17;100.00
34506;BME280;20748;42.632;23.198;2023-12-28T05:53:02;93027.34;;;0.21;100.00
34506;BME280;20748;42.632;23.198;2023-12-28T05:55:37;93028.91;;;0.22;100.00
34506;BME280;20748;42.632;23.198;2023-12-28T05:58:13;93043.59;;;0.15;100.00
34506;BME280;20748;42.632;23.198;2023-12-28T06:00:47;93037.47;;;0.09;100.00
34506;BME280;20748;42.632;23.198;2023-12-28T06:03:24;93048.28;;;0.18;100.00
34506;BME280;20748;42.632;23.198;2023-12-28T06:06:01;93049.66;;;0.21;100.00
34506;BME280;20748;42.632;23.198;2023-12-28T06:08:34;93051.84;;;0.17;100.00
34506;BME280;20748;42.632;23.198;2023-12-28T06:11:08;93051.84;;;0.17;100.00
34506;BME280;20748;42.632;23.198;2023-12-28T06:13:42;93047.94;;;0.08;100.00
34506;BME280;20748;42.632;23.198;2023-12-28T06:16:16;93051.50;;;0.07;100.00
34506;BME280;20748;42.632;23.198;2023-12-28T06:18:53;93049.50;;;0.09;100.00
34506;BME280;20748;42.632;23.198;2023-12-28T06:21:27;93045.50;;;-0.12;100.00
34506;BME280;20748;42.632;23.198;2023-12-28T06:24:04;93049.44;;;-0.10;100.00
34506;BME280;20748;42.632;23.198;2023-12-28T06:26:39;93057.72;;;-0.08;100.00
34506;BME280;20748;42.632;23.198;2023-12-28T06:29:14;93050.44;;;-0.11;100.00
34506;BME280;20748;42.632;23.198;2023-12-28T06:31:48;93047.69;;;-0.16;100.00
34506;BME280;20748;42.632;23.198;2023-12-28T06:34:23;93045.91;;;-0.16;100.00
34506;BME280;20748;42.632;23.198;2023-12-28T06:36:59;93042.56;;;-0.16;100.00
34506;BME280;20748;42.632;23.198;2023-12-28T06:39:34;93053.25;;;-0.19;100.00
34506;BME280;20748;42.632;23.198;2023-12-28T06:42:07;93040.00;;;-0.16;100.00
34506;BME280;20748;42.632;23.198;2023-12-28T06:44:43;93046.53;;;-0.20;100.00
34506;BME280;20748;42.632;23.198;2023-12-28T06:47:19;93048.47;;;-0.16;100.00
34506;BME280;20748;42.632;23.198;2023-12-28T06:49:54;93041.78;;;-0.17;100.00
34506;BME280;20748;42.632;23.198;2023-12-28T06:52:28;93041.59;;;-0.22;100.00
34506;BME280;20748;42.632;23.198;2023-12-28T06:55:06;93039.81;;;-0.21;100.00
34506;BME280;20748;42.632;23.198;2023-12-28T06:57:41;93044.72;;;-0.13;100.00
34506;BME280;20748;42.632;23.198;2023-12-28T07:00:15;93043.34;;;-0.16;100.00
34506;BME280;20748;42.632;23.198;2023-12-28T07:13:31;93046.00;;;0.03;100.00
34506;BME280;20748;42.632;23.198;2023-12-28T07:16:05;93045.38;;;0.08;100.00
34506;BME280;20748;42.632;23.198;2023-12-28T07:18:40;93050.47;;;0.15;100.00
34506;BME280;20748;42.632;23.198;2023-12-28T07:21:14;93047.47;;;0.24;100.00
34506;BME280;20748;42.632;23.198;2023-12-28T07:23:48;93043.81;;;0.39;100.00
34506;BME280;20748;42.632;23.198;2023-12-28T07:26:22;93050.03;;;0.50;100.00
34506;BME280;20748;42.632;23.198;2023-12-28T07:28:57;93048.22;;;0.57;100.00
34506;BME280;20748;42.632;23.198;2023-12-28T07:31:31;93043.78;;;0.64;100.00
34506;BME280;20748;42.632;23.198;2023-12-28T07:34:05;93055.97;;;0.76;100.00
34506;BME280;20748;42.632;23.198;2023-12-28T07:36:39;93053.13;;;0.84;100.00
34506;BME280;20748;42.632;23.198;2023-12-28T07:39:16;93059.56;;;0.93;100.00
34506;BME280;20748;42.632;23.198;2023-12-28T07:41:51;93056.72;;;1.02;100.00
34506;BME280;20748;42.632;23.198;2023-12-28T07:44:29;93050.44;;;1.16;100.00
34506;BME280;20748;42.632;23.198;2023-12-28T07:47:05;93051.75;;;1.26;100.00
34506;BME280;20748;42.632;23.198;2023-12-28T07:49:44;93065.47;;;1.38;100.00
34506;BME280;20748;42.632;23.198;2023-12-28T07:52:18;93062.03;;;1.44;100.00
34506;BME280;20748;42.632;23.198;2023-12-28T07:54:51;93065.53;;;1.50;100.00
34506;BME280;20748;42.632;23.198;2023-12-28T07:57:25;93060.81;;;1.66;100.00
34506;BME280;20748;42.632;23.198;2023-12-28T08:00:03;93059.28;;;1.77;100.00
34506;BME280;20748;42.632;23.198;2023-12-28T08:02:38;93057.78;;;1.87;100.00
34506;BME280;20748;42.632;23.198;2023-12-28T08:05:11;93057.75;;;2.06;100.00
34506;BME280;20748;42.632;23.198;2023-12-28T08:07:47;93064.50;;;2.19;100.00
34506;BME280;20748;42.632;23.198;2023-12-28T08:10:21;93066.69;;;2.34;100.00
34506;BME280;20748;42.632;23.198;2023-12-28T08:12:57;93053.50;;;2.54;100.00
34506;BME280;20748;42.632;23.198;2023-12-28T08:15:35;93053.06;;;2.70;100.00
34506;BME280;20748;42.632;23.198;2023-12-28T08:18:08;93051.97;;;2.89;100.00
34506;BME280;20748;42.632;23.198;2023-12-28T08:20:42;93046.13;;;3.06;97.69
34506;BME280;20748;42.632;23.198;2023-12-28T08:23:20;93051.84;;;3.20;98.10
34506;BME280;20748;42.632;23.198;2023-12-28T08:25:54;93049.66;;;3.41;96.58
34506;BME280;20748;42.632;23.198;2023-12-28T08:28:28;93046.06;;;3.54;95.93
34506;BME280;20748;42.632;23.198;2023-12-28T08:31:03;93043.13;;;3.62;95.24
34506;BME280;20748;42.632;23.198;2023-12-28T08:33:40;93039.91;;;3.84;95.12
34506;BME280;20748;42.632;23.198;2023-12-28T08:36:15;93043.66;;;4.05;93.82
34506;BME280;20748;42.632;23.198;2023-12-28T08:38:51;93039.63;;;4.26;93.68
34506;BME280;20748;42.632;23.198;2023-12-28T08:41:25;93044.16;;;4.36;92.40
34506;BME280;20748;42.632;23.198;2023-12-28T08:43:59;93039.03;;;4.53;93.23
34506;BME280;20748;42.632;23.198;2023-12-28T08:46:36;93041.72;;;4.59;95.20
34506;BME280;20748;42.632;23.198;2023-12-28T08:49:10;93036.75;;;4.74;96.11
34506;BME280;20748;42.632;23.198;2023-12-28T08:51:49;93036.69;;;4.86;95.59
34506;BME280;20748;42.632;23.198;2023-12-28T08:54:23;93026.50;;;4.96;94.83
34506;BME280;20748;42.632;23.198;2023-12-28T08:56:57;93031.03;;;5.06;94.14
34506;BME280;20748;42.632;23.198;2023-12-28T08:59:31;93027.84;;;5.21;92.77
34506;BME280;20748;42.632;23.198;2023-12-28T09:02:06;93027.56;;;5.40;92.26
34506;BME280;20748;42.632;23.198;2023-12-28T09:04:42;93017.81;;;5.47;91.49
34506;BME280;20748;42.632;23.198;2023-12-28T09:07:16;93020.38;;;5.64;91.02
34506;BME280;20748;42.632;23.198;2023-12-28T09:09:52;93022.69;;;5.88;89.85
34506;BME280;20748;42.632;23.198;2023-12-28T09:12:29;93019.06;;;6.12;87.08
34506;BME280;20748;42.632;23.198;2023-12-28T09:15:04;93013.28;;;6.32;85.29
34506;BME280;20748;42.632;23.198;2023-12-28T09:17:39;93011.41;;;6.55;85.21
34506;BME280;20748;42.632;23.198;2023-12-28T09:20:13;93014.09;;;6.70;83.52
34506;BME280;20748;42.632;23.198;2023-12-28T09:22:50;93004.38;;;6.93;82.79
34506;BME280;20748;42.632;23.198;2023-12-28T09:25:30;93004.56;;;7.19;82.37
34506;BME280;20748;42.632;23.198;2023-12-28T09:28:05;93002.53;;;7.32;80.97
34506;BME280;20748;42.632;23.198;2023-12-28T09:30:39;92998.44;;;7.46;79.90
34506;BME280;20748;42.632;23.198;2023-12-28T09:33:14;92993.88;;;7.79;79.94
34506;BME280;20748;42.632;23.198;2023-12-28T09:35:49;92987.69;;;7.96;76.40
34506;BME280;20748;42.632;23.198;2023-12-28T09:38:24;92985.38;;;8.05;76.35
34506;BME280;20748;42.632;23.198;2023-12-28T09:41:11;92982.25;;;8.03;77.29
34506;BME280;20748;42.632;23.198;2023-12-28T09:43:53;92975.75;;;8.05;75.88
34506;BME280;20748;42.632;23.198;2023-12-28T09:46:29;92974.72;;;8.22;75.86
34506;BME280;20748;42.632;23.198;2023-12-28T09:49:07;92971.66;;;8.67;73.66
34506;BME280;20748;42.632;23.198;2023-12-28T09:51:41;92969.25;;;9.02;71.66
34506;BME280;20748;42.632;23.198;2023-12-28T09:54:14;92961.88;;;9.35;70.91
34506;BME280;20748;42.632;23.198;2023-12-28T09:56:54;92957.84;;;9.63;70.41
34506;BME280;20748;42.632;23.198;2023-12-28T09:59:28;92948.88;;;9.90;68.40
34506;BME280;20748;42.632;23.198;2023-12-28T10:02:03;92946.00;;;9.87;67.55
34506;BME280;20748;42.632;23.198;2023-12-28T10:04:38;92948.75;;;10.06;66.41
34506;BME280;20748;42.632;23.198;2023-12-28T10:07:12;92941.75;;;10.36;65.25
34506;BME280;20748;42.632;23.198;2023-12-28T10:09:46;92944.97;;;10.63;65.24
34506;BME280;20748;42.632;23.198;2023-12-28T10:12:19;92937.28;;;10.77;63.85
34506;BME280;20748;42.632;23.198;2023-12-28T10:14:53;92939.75;;;10.92;61.62
34506;BME280;20748;42.632;23.198;2023-12-28T10:17:27;92935.19;;;11.03;60.19
34506;BME280;20748;42.632;23.198;2023-12-28T10:20:06;92935.16;;;11.33;61.32
34506;BME280;20748;42.632;23.198;2023-12-28T10:22:42;92921.41;;;11.46;59.93
34506;BME280;20748;42.632;23.198;2023-12-28T10:25:17;92919.31;;;11.67;58.67
34506;BME280;20748;42.632;23.198;2023-12-28T10:27:53;92910.22;;;11.84;58.99
34506;BME280;20748;42.632;23.198;2023-12-28T10:30:27;92900.94;;;11.92;58.88
34506;BME280;20748;42.632;23.198;2023-12-28T10:33:01;92884.31;;;12.02;57.92
34506;BME280;20748;42.632;23.198;2023-12-28T10:35:40;92881.03;;;11.58;58.80
34506;BME280;20748;42.632;23.198;2023-12-28T10:38:16;92877.41;;;11.73;59.15
34506;BME280;20748;42.632;23.198;2023-12-28T10:40:50;92878.75;;;11.51;58.82
34506;BME280;20748;42.632;23.198;2023-12-28T10:43:25;92872.81;;;11.45;58.93
34506;BME280;20748;42.632;23.198;2023-12-28T10:45:59;92866.63;;;11.60;59.30
34506;BME280;20748;42.632;23.198;2023-12-28T10:48:38;92866.88;;;11.39;59.73
34506;BME280;20748;42.632;23.198;2023-12-28T10:51:14;92863.09;;;11.07;59.11
34506;BME280;20748;42.632;23.198;2023-12-28T10:53:54;92864.63;;;11.08;59.18
34506;BME280;20748;42.632;23.198;2023-12-28T10:56:34;92856.81;;;11.08;60.09
34506;BME280;20748;42.632;23.198;2023-12-28T10:59:15;92846.47;;;10.98;60.28
34506;BME280;20748;42.632;23.198;2023-12-28T11:01:51;92849.28;;;10.82;59.87
34506;BME280;20748;42.632;23.198;2023-12-28T11:04:33;92843.19;;;10.63;61.40
34506;BME280;20748;42.632;23.198;2023-12-28T11:07:10;92839.88;;;10.57;60.74
34506;BME280;20748;42.632;23.198;2023-12-28T11:09:45;92844.69;;;10.69;60.91
34506;BME280;20748;42.632;23.198;2023-12-28T11:12:19;92829.97;;;10.54;61.15
34506;BME280;20748;42.632;23.198;2023-12-28T11:14:54;92831.78;;;10.58;61.88
34506;BME280;20748;42.632;23.198;2023-12-28T11:17:32;92824.81;;;10.73;60.91
34506;BME280;20748;42.632;23.198;2023-12-28T11:20:08;92821.09;;;11.04;60.70
34506;BME280;20748;42.632;23.198;2023-12-28T11:22:46;92818.06;;;10.96;58.73
34506;BME280;20748;42.632;23.198;2023-12-28T11:25:21;92813.84;;;11.20;59.05
34506;BME280;20748;42.632;23.198;2023-12-28T11:27:54;92812.06;;;11.15;58.88
34506;BME280;20748;42.632;23.198;2023-12-28T11:30:28;92812.22;;;11.43;56.05
34506;BME280;20748;42.632;23.198;2023-12-28T11:33:03;92795.97;;;11.65;55.47
34506;BME280;20748;42.632;23.198;2023-12-28T11:35:39;92791.38;;;11.57;55.86
34506;BME280;20748;42.632;23.198;2023-12-28T11:38:17;92786.19;;;11.90;55.38
34506;BME280;20748;42.632;23.198;2023-12-28T11:40:51;92787.50;;;12.07;54.88
34506;BME280;20748;42.632;23.198;2023-12-28T11:43:28;92780.88;;;11.95;53.90
34506;BME280;20748;42.632;23.198;2023-12-28T11:46:07;92775.00;;;12.04;54.03
34506;BME280;20748;42.632;23.198;2023-12-28T11:48:41;92772.91;;;11.87;54.74
34506;BME280;20748;42.632;23.198;2023-12-28T11:51:15;92781.25;;;11.69;55.34
34506;BME280;20748;42.632;23.198;2023-12-28T11:53:55;92773.31;;;11.94;54.98
34506;BME280;20748;42.632;23.198;2023-12-28T11:56:29;92773.09;;;11.90;54.72
34506;BME280;20748;42.632;23.198;2023-12-28T11:59:05;92778.44;;;11.99;54.53
34506;BME280;20748;42.632;23.198;2023-12-28T12:01:39;92767.09;;;11.57;55.08
34506;BME280;20748;42.632;23.198;2023-12-28T12:04:13;92780.31;;;11.46;54.83
34506;BME280;20748;42.632;23.198;2023-12-28T12:06:48;92782.50;;;11.39;55.00
34506;BME280;20748;42.632;23.198;2023-12-28T12:09:24;92771.78;;;11.40;56.18
34506;BME280;20748;42.632;23.198;2023-12-28T12:11:58;92771.97;;;11.25;57.49
34506;BME280;20748;42.632;23.198;2023-12-28T12:14:34;92765.56;;;11.36;55.83
34506;BME280;20748;42.632;23.198;2023-12-28T12:17:09;92746.72;;;11.20;56.02
34506;BME280;20748;42.632;23.198;2023-12-28T12:19:44;92759.25;;;11.18;57.02
34506;BME280;20748;42.632;23.198;2023-12-28T12:22:21;92764.22;;;11.39;56.89
34506;BME280;20748;42.632;23.198;2023-12-28T12:25:00;92756.84;;;11.22;57.24
34506;BME280;20748;42.632;23.198;2023-12-28T12:27:36;92752.69;;;11.21;57.75
34506;BME280;20748;42.632;23.198;2023-12-28T12:30:13;92767.38;;;11.17;56.79
34506;BME280;20748;42.632;23.198;2023-12-28T12:32:47;92763.13;;;11.01;57.47
34506;BME280;20748;42.632;23.198;2023-12-28T12:35:27;92764.25;;;10.76;58.70
34506;BME280;20748;42.632;23.198;2023-12-28T12:38:01;92779.81;;;10.81;59.08
34506;BME280;20748;42.632;23.198;2023-12-28T12:40:36;92774.75;;;10.90;58.04
34506;BME280;20748;42.632;23.198;2023-12-28T12:43:10;92777.34;;;11.14;58.22
34506;BME280;20748;42.632;23.198;2023-12-28T12:45:44;92777.09;;;10.92;58.41
34506;BME280;20748;42.632;23.198;2023-12-28T12:48:20;92774.09;;;11.04;58.18
34506;BME280;20748;42.632;23.198;2023-12-28T12:50:54;92788.28;;;11.17;57.48
34506;BME280;20748;42.632;23.198;2023-12-28T12:53:32;92772.44;;;11.08;58.02
34506;BME280;20748;42.632;23.198;2023-12-28T12:56:08;92772.69;;;11.11;57.87
34506;BME280;20748;42.632;23.198;2023-12-28T12:58:42;92762.16;;;11.17;59.09
34506;BME280;20748;42.632;23.198;2023-12-28T13:01:15;92756.31;;;11.25;58.19
34506;BME280;20748;42.632;23.198;2023-12-28T13:03:50;92757.28;;;11.48;58.06
34506;BME280;20748;42.632;23.198;2023-12-28T13:06:24;92750.69;;;11.51;56.98
34506;BME280;20748;42.632;23.198;2023-12-28T13:08:58;92752.06;;;11.81;53.40
34506;BME280;20748;42.632;23.198;2023-12-28T13:11:34;92749.72;;;11.80;54.02
34506;BME280;20748;42.632;23.198;2023-12-28T13:14:11;92742.50;;;11.91;54.12
34506;BME280;20748;42.632;23.198;2023-12-28T13:16:44;92744.69;;;11.84;56.24
34506;BME280;20748;42.632;23.198;2023-12-28T13:19:20;92742.91;;;11.32;57.25
34506;BME280;20748;42.632;23.198;2023-12-28T13:21:57;92741.59;;;11.48;57.10
34506;BME280;20748;42.632;23.198;2023-12-28T13:24:30;92737.34;;;11.52;57.24
34506;BME280;20748;42.632;23.198;2023-12-28T13:27:06;92753.75;;;11.39;56.66
34506;BME280;20748;42.632;23.198;2023-12-28T13:29:39;92740.41;;;11.02;58.24
34506;BME280;20748;42.632;23.198;2023-12-28T13:32:13;92750.22;;;11.10;57.91
34506;BME280;20748;42.632;23.198;2023-12-28T13:34:47;92754.63;;;11.15;57.32
34506;BME280;20748;42.632;23.198;2023-12-28T13:37:21;92756.44;;;11.14;58.70
34506;BME280;20748;42.632;23.198;2023-12-28T13:39:55;92758.56;;;11.32;57.21
34506;BME280;20748;42.632;23.198;2023-12-28T13:42:30;92757.50;;;11.33;57.36
34506;BME280;20748;42.632;23.198;2023-12-28T13:45:05;92753.25;;;11.37;57.34
34506;BME280;20748;42.632;23.198;2023-12-28T13:47:39;92761.19;;;11.32;57.22
34506;BME280;20748;42.632;23.198;2023-12-28T13:50:14;92773.66;;;11.15;57.92
34506;BME280;20748;42.632;23.198;2023-12-28T13:52:50;92772.88;;;10.96;59.51